Time;durP1;ratioP1;P1;durP2;ratioP2;P2;SDS_P1;SDS_P2;PMS_P1;PMS_P2;Temp;Humidity;BMP_temperature;BMP_pressure;BME280_temperature;BME280_humidity;BME280_pressure;Samples;Min_cycle;Max_cycle;Signal;HPM_P1;HPM_P2
2022/11/09 00:01:18;;;;;;;6.03;2.45;;;;;;;13.86;69.52;100420.13;5031542;28;20029;-79
2022/11/09 00:03:43;;;;;;;5.22;1.83;;;;;;;13.86;69.48;100425.69;5061932;28;20028;-79
2022/11/09 00:06:08;;;;;;;5.65;2.20;;;;;;;13.85;69.60;100423.22;5071271;28;20472;-78
2022/11/09 00:08:36;;;;;;;9.43;2.15;;;;;;;13.82;70.05;100426.56;5052107;28;20056;-78
2022/11/09 00:11:07;;;;;;;6.53;2.13;;;;;;;13.79;69.66;100422.38;5050186;28;20108;-79
2022/11/09 00:13:40;;;;;;;6.47;2.10;;;;;;;13.80;69.92;100424.06;5051713;28;20436;-78
2022/11/09 00:16:07;;;;;;;7.57;2.10;;;;;;;13.79;70.03;100414.00;5051962;28;20021;-78
2022/11/09 00:18:36;;;;;;;10.27;2.35;;;;;;;13.78;70.29;100425.47;5049989;28;20223;-78
2022/11/09 00:21:10;;;;;;;8.05;2.60;;;;;;;13.84;69.99;100427.13;5037007;28;20029;-78
2022/11/09 00:23:35;;;;;;;9.05;2.47;;;;;;;13.83;69.99;100417.91;5031166;28;20051;-79
2022/11/09 00:26:06;;;;;;;10.15;2.35;;;;;;;13.83;70.33;100420.69;5031597;28;20108;-78
2022/11/09 00:28:32;;;;;;;7.35;2.53;;;;;;;13.83;70.00;100420.69;5032326;28;20025;-78
2022/11/09 00:31:02;;;;;;;5.00;2.30;;;;;;;13.81;70.65;100414.56;5031237;28;20071;-78
2022/11/09 00:33:27;;;;;;;6.88;2.47;;;;;;;13.81;70.14;100422.13;5056760;28;20025;-78
2022/11/09 00:35:53;;;;;;;6.30;2.40;;;;;;;13.82;70.47;100412.63;5056602;28;20041;-78
2022/11/09 00:38:18;;;;;;;6.40;2.33;;;;;;;13.83;70.49;100414.28;5036139;28;20021;-78
2022/11/09 00:40:44;;;;;;;5.63;2.30;;;;;;;13.82;70.67;100407.03;5050877;28;20040;-78
2022/11/09 00:43:09;;;;;;;8.07;2.50;;;;;;;13.82;70.92;100409.81;5047660;28;20041;-79
2022/11/09 00:45:39;;;;;;;5.72;2.20;;;;;;;13.80;70.61;100404.53;5034339;28;20038;-79
2022/11/09 00:48:07;;;;;;;6.95;2.30;;;;;;;13.80;70.96;100407.34;5057600;28;20063;-79
2022/11/09 00:50:36;;;;;;;6.47;2.22;;;;;;;13.80;70.85;100398.97;5076231;28;20025;-79
2022/11/09 00:53:01;;;;;;;5.05;2.20;;;;;;;13.77;70.52;100405.09;5074651;28;20372;-79
2022/11/09 00:55:26;;;;;;;6.57;2.35;;;;;;;13.77;70.54;100402.31;5045840;28;20037;-78
2022/11/09 00:57:52;;;;;;;10.57;2.30;;;;;;;13.75;70.75;100402.63;5035884;28;20032;-79
2022/11/09 01:00:20;;;;;;;8.82;2.70;;;;;;;13.80;70.53;100403.72;5036515;28;20361;-79
2022/11/09 01:02:46;;;;;;;4.63;2.17;;;;;;;13.81;70.52;100397.00;5064305;28;20123;-79
2022/11/09 01:05:11;;;;;;;5.78;2.20;;;;;;;13.83;70.33;100409.53;5061840;28;20104;-79
2022/11/09 01:07:37;;;;;;;7.10;2.35;;;;;;;13.82;70.26;100410.66;5034566;28;20473;-80
2022/11/09 01:10:04;;;;;;;5.45;2.08;;;;;;;13.84;70.49;100410.38;5034309;28;20025;-79
2022/11/09 01:12:30;;;;;;;5.57;1.98;;;;;;;13.85;70.21;100417.63;5035197;28;20029;-80
2022/11/09 01:14:55;;;;;;;6.43;2.30;;;;;;;13.83;69.83;100420.69;5045769;28;20408;-79
2022/11/09 01:17:21;;;;;;;10.95;2.50;;;;;;;13.81;70.16;100420.16;5045326;28;20484;-79
2022/11/09 01:19:47;;;;;;;7.22;1.90;;;;;;;13.83;69.81;100428.22;5065651;28;20029;-79
2022/11/09 01:22:12;;;;;;;12.02;2.10;;;;;;;13.83;69.81;100426.25;5053839;28;20021;-79
2022/11/09 01:24:37;;;;;;;5.75;1.90;;;;;;;13.82;70.11;100435.75;5054856;28;20029;-79
2022/11/09 01:27:03;;;;;;;5.18;2.08;;;;;;;13.83;69.71;100428.22;5035194;28;20029;-79
2022/11/09 01:29:28;;;;;;;7.43;2.20;;;;;;;13.83;69.45;100431.84;5033217;28;20155;-79
2022/11/09 01:31:54;;;;;;;6.43;2.22;;;;;;;13.81;69.48;100431.31;5044549;28;20016;-79
2022/11/09 01:34:19;;;;;;;7.57;2.20;;;;;;;13.80;69.54;100432.44;5073887;28;20497;-79
2022/11/09 01:36:45;;;;;;;6.05;1.90;;;;;;;13.78;69.74;100433.84;5036924;28;20041;-79
2022/11/09 01:39:10;;;;;;;6.40;2.22;;;;;;;13.79;69.33;100439.13;5041073;28;20036;-79
2022/11/09 01:41:36;;;;;;;3.25;1.75;;;;;;;13.80;69.79;100432.44;5054670;28;20031;-78
2022/11/09 01:44:18;;;;;;;8.48;2.20;;;;;;;13.80;69.91;100431.63;5046444;28;20041;-79
2022/11/09 01:46:49;;;;;;;6.25;2.22;;;;;;;13.81;69.71;100438.84;5053409;28;20021;-79
2022/11/09 01:49:48;;;;;;;7.68;2.28;;;;;;;13.85;69.68;100443.56;5053949;28;20400;-79
2022/11/09 01:52:25;;;;;;;5.78;1.95;;;;;;;13.77;69.51;100437.75;5051700;28;20049;-79
2022/11/09 01:54:56;;;;;;;5.90;2.22;;;;;;;13.76;69.30;100428.56;5053200;28;20475;-79
2022/11/09 01:57:26;;;;;;;10.13;2.30;;;;;;;13.76;69.43;100417.41;5054412;28;20084;-79
2022/11/09 02:00:01;;;;;;;5.88;2.17;;;;;;;13.77;69.54;100421.84;5054915;28;20029;-79
2022/11/09 02:02:27;;;;;;;7.18;2.30;;;;;;;13.76;69.01;100431.34;5062584;28;20028;-78
2022/11/09 02:05:04;;;;;;;5.63;2.10;;;;;;;13.78;69.04;100439.41;5053038;28;20040;-79
2022/11/09 02:07:30;;;;;;;6.25;2.10;;;;;;;13.74;69.33;100434.41;5043054;28;20029;-78
2022/11/09 02:10:21;;;;;;;9.20;2.40;;;;;;;13.77;69.17;100423.81;5035786;28;20025;-79
2022/11/09 02:12:47;;;;;;;6.20;1.90;;;;;;;13.75;68.95;100436.09;5038399;28;20874;-79
2022/11/09 02:15:13;;;;;;;7.95;2.25;;;;;;;13.75;69.06;100433.31;5038295;28;20060;-78
2022/11/09 02:17:40;;;;;;;7.82;2.03;;;;;;;13.73;68.58;100435.53;5047132;28;20049;-78
2022/11/09 02:20:09;;;;;;;4.90;1.83;;;;;;;13.72;69.04;100435.81;5046673;28;20029;-79
2022/11/09 02:22:35;;;;;;;5.32;1.77;;;;;;;13.72;69.12;100431.06;5049234;28;20025;-79
2022/11/09 02:25:01;;;;;;;9.00;2.15;;;;;;;13.71;69.20;100434.97;5032794;28;20017;-78
2022/11/09 02:27:27;;;;;;;6.90;1.88;;;;;;;13.72;68.89;100447.81;5033403;28;20038;-78
2022/11/09 02:29:53;;;;;;;9.05;2.10;;;;;;;13.75;68.68;100447.25;5033449;28;20045;-79
2022/11/09 02:32:22;;;;;;;4.47;1.88;;;;;;;13.72;69.11;100450.59;5037191;28;20042;-79
2022/11/09 02:34:47;;;;;;;7.13;2.05;;;;;;;13.73;69.08;100452.25;5035402;28;20034;-78
2022/11/09 02:37:43;;;;;;;7.38;2.20;;;;;;;13.73;68.87;100462.59;5044336;28;20056;-79
2022/11/09 02:40:15;;;;;;;7.28;2.10;;;;;;;13.71;68.77;100450.88;5043896;28;20045;-78
2022/11/09 02:42:40;;;;;;;3.45;1.60;;;;;;;13.71;68.67;100431.34;5033161;28;20041;-79
2022/11/09 02:45:06;;;;;;;8.23;2.00;;;;;;;13.71;68.62;100434.97;5032585;28;20030;-78
2022/11/09 02:47:32;;;;;;;10.43;2.33;;;;;;;13.68;68.40;100424.41;5073195;28;20028;-79
2022/11/09 02:49:57;;;;;;;7.43;2.05;;;;;;;13.68;68.65;100426.34;5064288;28;20040;-79
2022/11/09 02:52:23;;;;;;;9.43;2.10;;;;;;;13.70;68.31;100435.25;5059232;28;20032;-79
2022/11/09 02:54:48;;;;;;;7.20;2.03;;;;;;;13.68;68.28;100413.25;5052792;28;20116;-79
2022/11/09 02:57:16;;;;;;;5.72;2.00;;;;;;;13.70;68.03;100396.22;5036950;28;20037;-79
2022/11/09 02:59:41;;;;;;;6.55;1.95;;;;;;;13.68;68.09;100402.09;5042432;28;20031;-79
2022/11/09 03:02:07;;;;;;;10.05;2.03;;;;;;;13.63;67.69;100417.97;5053709;28;20033;-79
2022/11/09 03:04:41;;;;;;;6.93;1.92;;;;;;;13.64;68.39;100426.09;5052985;28;20477;-79
2022/11/09 03:07:09;;;;;;;6.68;2.25;;;;;;;13.66;68.06;100423.84;5035675;28;20033;-79
2022/11/09 03:09:34;;;;;;;12.50;2.13;;;;;;;13.70;68.05;100435.25;5032120;28;20362;-79
2022/11/09 03:12:27;;;;;;;8.98;2.40;;;;;;;13.72;68.23;100444.19;5034566;28;20028;-80
2022/11/09 03:14:45;;;;;;;8.20;2.10;;;;;;;13.67;68.40;100446.97;5051513;28;20036;-79
2022/11/09 03:17:12;;;;;;;6.10;1.80;;;;;;;13.69;68.47;100455.91;5053122;28;20025;-79
2022/11/09 03:19:38;;;;;;;8.77;2.05;;;;;;;13.69;68.56;100459.53;5038779;28;20026;-79
2022/11/09 03:22:03;;;;;;;7.50;1.70;;;;;;;13.71;68.28;100464.81;5066227;28;20089;-79
2022/11/09 03:24:28;;;;;;;11.63;2.40;;;;;;;13.72;68.33;100463.72;5071833;28;20032;-78
2022/11/09 03:26:54;;;;;;;8.95;2.15;;;;;;;13.71;68.91;100478.75;5072231;28;20032;-79
2022/11/09 03:29:21;;;;;;;6.88;2.28;;;;;;;13.72;68.47;100466.50;5049593;28;20049;-79
2022/11/09 03:31:47;;;;;;;8.80;2.20;;;;;;;13.66;68.74;100470.41;5032844;28;20037;-79
2022/11/09 03:34:12;;;;;;;8.05;2.75;;;;;;;13.67;68.87;100466.50;5030346;28;20025;-79
2022/11/09 03:36:37;;;;;;;6.03;2.22;;;;;;;13.66;68.95;100467.63;5060900;28;20510;-79
2022/11/09 03:39:03;;;;;;;8.15;2.40;;;;;;;13.59;69.03;100465.13;5054850;28;20029;-79
2022/11/09 03:41:28;;;;;;;8.10;2.17;;;;;;;13.61;68.91;100474.06;5031795;28;20025;-79
2022/11/09 03:43:53;;;;;;;8.38;2.08;;;;;;;13.61;68.93;100473.22;5031933;28;20029;-79
2022/11/09 03:46:18;;;;;;;6.60;1.92;;;;;;;13.61;69.16;100490.78;5041963;28;20037;-79
2022/11/09 03:48:43;;;;;;;8.35;1.88;;;;;;;13.57;69.33;100484.09;5051093;28;20044;-78
2022/11/09 03:51:09;;;;;;;9.65;2.60;;;;;;;13.56;69.53;100492.72;5040443;28;20132;-79
2022/11/09 03:53:34;;;;;;;8.00;2.17;;;;;;;13.55;69.36;100500.25;5042326;28;20032;-79
2022/11/09 03:56:02;;;;;;;10.90;2.22;;;;;;;13.55;69.67;100502.22;5049787;28;20419;-79
2022/11/09 03:58:27;;;;;;;11.60;2.47;;;;;;;13.52;69.53;100509.22;5051787;28;20047;-79
2022/11/09 04:00:53;;;;;;;10.35;1.92;;;;;;;13.54;69.90;100508.91;5048824;28;20108;-79
2022/11/09 04:03:18;;;;;;;10.30;2.03;;;;;;;13.53;69.67;100510.06;5049717;28;20033;-79
2022/11/09 04:05:43;;;;;;;11.57;2.33;;;;;;;13.56;69.94;100512.25;5052397;28;20031;-79
2022/11/09 04:08:09;;;;;;;9.00;2.20;;;;;;;13.54;69.70;100511.72;5031770;28;20025;-79
2022/11/09 04:10:34;;;;;;;8.98;2.10;;;;;;;13.55;69.52;100516.16;5032690;28;20021;-79
2022/11/09 04:12:59;;;;;;;6.75;2.10;;;;;;;13.53;69.90;100518.41;5031317;28;20029;-79
2022/11/09 04:15:25;;;;;;;8.35;2.00;;;;;;;13.48;69.62;100522.03;5031708;28;20406;-79
2022/11/09 04:17:57;;;;;;;9.40;2.53;;;;;;;13.46;69.72;100522.31;5030669;28;20049;-79
2022/11/09 04:20:24;;;;;;;10.63;1.83;;;;;;;13.48;69.89;100527.63;5045663;28;20109;-79
2022/11/09 04:23:00;;;;;;;6.63;1.98;;;;;;;13.47;70.18;100537.09;5070587;28;20090;-79
2022/11/09 04:25:27;;;;;;;9.18;1.90;;;;;;;13.49;70.04;100537.66;5048904;28;20042;-79
2022/11/09 04:27:55;;;;;;;11.13;2.25;;;;;;;13.51;69.66;100541.81;5031507;28;20064;-79
2022/11/09 04:30:20;;;;;;;11.02;2.10;;;;;;;13.49;69.97;100541.28;5036155;28;20029;-79
2022/11/09 04:32:45;;;;;;;9.63;1.90;;;;;;;13.50;69.85;100545.72;5031221;28;20507;-79
2022/11/09 04:35:11;;;;;;;6.88;1.92;;;;;;;13.51;69.80;100550.19;5051723;28;20029;-78
2022/11/09 04:37:36;;;;;;;9.77;2.10;;;;;;;13.53;69.71;100549.09;5036833;28;20249;-79
2022/11/09 04:40:01;;;;;;;13.20;2.85;;;;;;;13.54;69.79;100551.59;5044853;28;20071;-79
2022/11/09 04:42:27;;;;;;;7.70;1.98;;;;;;;13.53;69.99;100549.09;5051777;28;20086;-79
2022/11/09 04:44:52;;;;;;;10.43;1.95;;;;;;;13.51;69.78;100546.56;5050548;28;20076;-79
2022/11/09 04:47:17;;;;;;;9.63;1.80;;;;;;;13.55;69.71;100552.41;5045371;28;20535;-79
2022/11/09 04:49:42;;;;;;;7.68;2.40;;;;;;;13.54;69.66;100556.31;5039157;28;20036;-79
2022/11/09 04:52:11;;;;;;;8.10;2.20;;;;;;;13.55;69.91;100555.19;5069026;28;20029;-78
2022/11/09 04:54:36;;;;;;;9.20;2.30;;;;;;;13.54;69.75;100550.75;5071347;28;20074;-79
2022/11/09 04:57:01;;;;;;;11.70;2.20;;;;;;;13.50;69.80;100556.88;5065053;28;20037;-79
2022/11/09 04:59:26;;;;;;;10.35;2.17;;;;;;;13.47;69.88;100557.44;5070985;28;20502;-79
2022/11/09 05:01:52;;;;;;;9.20;2.08;;;;;;;13.51;70.03;100554.91;5048135;28;20026;-79
2022/11/09 05:04:17;;;;;;;10.98;2.17;;;;;;;13.45;70.05;100547.69;5030529;28;20025;-79
2022/11/09 05:06:45;;;;;;;11.00;2.40;;;;;;;13.44;70.10;100552.44;5038239;28;20082;-78
2022/11/09 05:09:10;;;;;;;9.45;2.13;;;;;;;13.41;70.19;100541.84;5051239;28;20064;-78
2022/11/09 05:11:35;;;;;;;9.00;2.17;;;;;;;13.41;70.41;100550.19;5055047;28;20064;-78
2022/11/09 05:14:02;;;;;;;13.32;2.30;;;;;;;13.41;70.35;100544.63;5040744;28;20042;-77
2022/11/09 05:16:28;;;;;;;10.23;2.30;;;;;;;13.41;70.07;100539.06;5040529;28;20508;-80
2022/11/09 05:18:54;;;;;;;8.40;2.08;;;;;;;13.39;70.30;100544.06;5051415;28;20045;-80
2022/11/09 05:21:19;;;;;;;9.00;1.92;;;;;;;13.37;70.00;100546.31;5050388;28;20112;-79
2022/11/09 05:23:57;;;;;;;8.63;2.10;;;;;;;13.39;70.01;100532.91;5035514;28;20076;-79
2022/11/09 05:26:24;;;;;;;8.88;2.30;;;;;;;13.42;70.11;100537.09;5031956;28;20053;-79
2022/11/09 05:28:49;;;;;;;9.70;2.22;;;;;;;13.39;70.05;100537.66;5042561;28;20060;-79
2022/11/09 05:31:14;;;;;;;9.63;2.00;;;;;;;13.35;70.49;100537.38;5034630;28;20378;-77
2022/11/09 05:33:40;;;;;;;7.47;1.90;;;;;;;13.37;70.58;100542.69;5034989;28;20029;-78
2022/11/09 05:36:05;;;;;;;10.63;2.40;;;;;;;13.32;70.68;100543.50;5034053;28;20028;-78
2022/11/09 05:38:31;;;;;;;10.00;2.22;;;;;;;13.31;70.46;100541.84;5054363;28;20040;-78
2022/11/09 05:40:56;;;;;;;11.95;2.28;;;;;;;13.31;70.44;100550.19;5054019;28;20021;-78
2022/11/09 05:43:21;;;;;;;9.73;1.95;;;;;;;13.33;70.59;100550.75;5038001;28;20021;-78
2022/11/09 05:45:50;;;;;;;8.15;2.22;;;;;;;13.30;70.51;100545.75;5033750;28;20033;-79
2022/11/09 05:48:16;;;;;;;8.13;1.90;;;;;;;13.32;70.58;100551.84;5034038;28;20033;-79
2022/11/09 05:50:42;;;;;;;12.00;2.35;;;;;;;13.30;70.23;100548.53;5033071;28;20025;-78
2022/11/09 05:53:09;;;;;;;10.40;2.45;;;;;;;13.30;70.38;100551.31;5033266;28;20040;-78
2022/11/09 05:55:38;;;;;;;11.27;2.53;;;;;;;13.27;70.57;100543.50;5049603;28;20091;-78
2022/11/09 05:58:07;;;;;;;7.50;2.53;;;;;;;13.29;70.56;100546.88;5056627;28;20052;-78
2022/11/09 06:00:33;;;;;;;9.90;2.38;;;;;;;13.23;70.57;100537.66;5047607;28;20104;-77
2022/11/09 06:03:09;;;;;;;9.75;2.28;;;;;;;13.27;70.81;100549.06;5039841;28;20179;-78
2022/11/09 06:05:39;;;;;;;7.95;2.22;;;;;;;13.23;70.68;100542.38;5034222;28;20052;-78
2022/11/09 06:08:14;;;;;;;6.03;1.88;;;;;;;13.23;70.56;100550.75;5062154;28;20384;-78
2022/11/09 06:10:40;;;;;;;9.77;2.45;;;;;;;13.20;70.59;100542.91;5052547;28;20060;-78
2022/11/09 06:13:06;;;;;;;10.52;2.50;;;;;;;13.20;70.54;100540.13;5051192;28;20056;-79
2022/11/09 06:15:35;;;;;;;9.13;2.30;;;;;;;13.22;70.54;100552.69;5060941;28;20482;-79
2022/11/09 06:18:00;;;;;;;9.77;2.30;;;;;;;13.18;70.60;100553.50;5039809;28;20036;-79
2022/11/09 06:20:27;;;;;;;13.23;2.53;;;;;;;13.13;70.87;100556.31;5068550;28;20391;-80
2022/11/09 06:22:53;;;;;;;11.82;2.72;;;;;;;13.12;71.14;100557.41;5054452;28;20356;-79
2022/11/09 06:25:19;;;;;;;7.72;2.25;;;;;;;13.06;70.89;100556.56;5045626;28;20030;-79
2022/11/09 06:27:44;;;;;;;12.15;2.72;;;;;;;13.10;71.12;100570.78;5032887;28;20116;-79
2022/11/09 06:30:10;;;;;;;9.88;2.20;;;;;;;13.10;71.02;100557.69;5032283;28;20029;-76
2022/11/09 06:32:35;;;;;;;9.15;2.50;;;;;;;13.07;71.26;100569.38;5044792;28;20134;-79
2022/11/09 06:35:00;;;;;;;12.80;2.45;;;;;;;13.08;71.42;100570.22;5029599;28;20046;-76
2022/11/09 06:37:26;;;;;;;8.20;2.30;;;;;;;13.05;71.42;100570.75;5042810;28;20029;-73
2022/11/09 06:39:51;;;;;;;12.93;2.45;;;;;;;13.02;71.52;100573.00;5041880;28;20487;-71
2022/11/09 06:42:17;;;;;;;8.40;2.17;;;;;;;13.02;71.31;100574.94;5029620;28;20041;-71
2022/11/09 06:44:42;;;;;;;10.70;2.30;;;;;;;13.02;71.67;100570.22;5026862;28;20096;-71
2022/11/09 06:47:07;;;;;;;6.00;1.98;;;;;;;13.03;71.56;100573.84;5027259;28;20032;-71
2022/11/09 06:49:32;;;;;;;8.48;2.20;;;;;;;13.00;71.53;100583.56;5034770;28;20473;-71
2022/11/09 06:51:58;;;;;;;11.68;2.30;;;;;;;13.05;71.78;100576.31;5029410;28;20025;-71
2022/11/09 06:54:23;;;;;;;11.65;2.72;;;;;;;13.02;71.76;100586.09;5055101;28;20032;-70
2022/11/09 06:56:48;;;;;;;9.45;2.42;;;;;;;13.03;71.53;100584.97;5042867;28;20036;-70
2022/11/09 06:59:14;;;;;;;7.68;2.00;;;;;;;13.04;71.86;100581.06;5041867;28;20063;-71
2022/11/09 07:01:42;;;;;;;13.85;2.30;;;;;;;13.05;71.98;100582.75;5044986;28;20040;-73
2022/11/09 07:04:07;;;;;;;6.75;2.25;;;;;;;13.05;71.55;100582.75;5049014;28;20492;-70
2022/11/09 07:06:32;;;;;;;8.02;2.28;;;;;;;13.05;71.61;100593.03;5034323;28;20064;-71
2022/11/09 07:08:58;;;;;;;7.05;2.25;;;;;;;13.07;71.52;100596.41;5033110;28;20029;-72
2022/11/09 07:11:23;;;;;;;8.98;2.30;;;;;;;13.08;71.01;100598.06;5034758;28;20022;-71
2022/11/09 07:13:49;;;;;;;13.15;2.30;;;;;;;13.07;71.08;100602.81;5030457;28;20481;-71
2022/11/09 07:16:17;;;;;;;9.88;2.40;;;;;;;13.08;71.25;100604.47;5044050;28;20055;-71
2022/11/09 07:18:44;;;;;;;10.57;2.30;;;;;;;13.08;71.48;100600.84;5070269;28;20450;-68
2022/11/09 07:21:10;;;;;;;11.43;2.60;;;;;;;13.07;71.14;100607.56;5067435;28;20034;-69
2022/11/09 07:23:38;;;;;;;10.43;2.65;;;;;;;13.01;71.31;100609.50;5036667;28;20384;-70
2022/11/09 07:26:03;;;;;;;10.75;2.33;;;;;;;13.01;71.68;100615.06;5046309;28;20115;-69
2022/11/09 07:28:29;;;;;;;8.20;2.22;;;;;;;13.06;71.41;100611.47;5030056;28;20163;-72
2022/11/09 07:30:57;;;;;;;9.20;2.38;;;;;;;13.05;71.15;100619.00;5030867;28;20025;-77
2022/11/09 07:33:23;;;;;;;12.80;2.97;;;;;;;13.11;71.06;100614.25;5033949;28;20468;-73
2022/11/09 07:35:49;;;;;;;8.70;2.30;;;;;;;13.09;71.37;100617.31;5042526;28;20052;-70
2022/11/09 07:38:15;;;;;;;11.75;2.60;;;;;;;13.10;71.48;100615.38;5050868;28;20116;-72
2022/11/09 07:40:40;;;;;;;10.48;2.42;;;;;;;13.10;71.13;100615.38;5043238;28;20057;-75
2022/11/09 07:43:07;;;;;;;13.68;3.03;;;;;;;13.02;71.42;100623.16;5044571;28;20059;-76
2022/11/09 07:45:34;;;;;;;10.65;2.40;;;;;;;13.05;71.05;100624.56;5047110;28;20045;-75
2022/11/09 07:48:03;;;;;;;13.52;2.70;;;;;;;12.94;72.03;100615.34;5039058;28;20021;-76
2022/11/09 07:50:30;;;;;;;12.77;3.10;;;;;;;12.94;71.78;100615.34;5040571;28;20098;-75
2022/11/09 07:52:56;;;;;;;10.90;2.63;;;;;;;12.96;71.65;100618.66;5046975;28;20031;-75
2022/11/09 07:55:23;;;;;;;9.10;2.33;;;;;;;12.93;71.93;100622.03;5038339;28;20377;-77
2022/11/09 07:57:49;;;;;;;11.50;2.47;;;;;;;13.00;71.98;100624.53;5030609;28;20635;-72
2022/11/09 08:00:15;;;;;;;11.38;2.90;;;;;;;12.93;71.83;100624.81;5030972;28;20052;-74
2022/11/09 08:02:40;;;;;;;9.52;2.13;;;;;;;12.96;71.65;100632.59;5039386;28;20467;-74
2022/11/09 08:05:06;;;;;;;5.80;2.10;;;;;;;12.94;72.07;100628.44;5070154;28;20033;-66
2022/11/09 08:07:32;;;;;;;7.90;2.20;;;;;;;12.95;71.94;100638.44;5051925;28;20484;-67
2022/11/09 08:09:57;;;;;;;8.65;2.25;;;;;;;12.98;72.05;100626.75;5042088;28;20087;-66
2022/11/09 08:12:23;;;;;;;9.10;2.40;;;;;;;12.99;71.95;100637.63;5040234;28;20123;-74
2022/11/09 08:14:48;;;;;;;7.78;2.03;;;;;;;12.99;72.13;100637.63;5044810;28;20033;-63
2022/11/09 08:17:13;;;;;;;8.20;2.08;;;;;;;12.93;71.81;100640.66;5036614;28;20043;-64
2022/11/09 08:19:39;;;;;;;6.97;2.47;;;;;;;12.87;71.92;100639.81;5038748;28;20028;-75
2022/11/09 08:22:04;;;;;;;12.50;2.45;;;;;;;12.93;72.08;100638.75;5044427;28;20365;-76
2022/11/09 08:24:29;;;;;;;12.85;2.58;;;;;;;12.95;72.06;100642.06;5037066;28;20029;-70
2022/11/09 08:26:54;;;;;;;8.07;2.47;;;;;;;12.96;72.09;100652.09;5040146;28;20029;-75
2022/11/09 08:29:20;;;;;;;11.18;2.65;;;;;;;13.00;72.13;100656.00;5037505;28;20037;-73
2022/11/09 08:31:49;;;;;;;8.63;2.55;;;;;;;13.02;72.07;100655.75;5036968;28;20084;-73
2022/11/09 08:34:20;;;;;;;8.93;2.20;;;;;;;13.09;71.59;100666.66;5036613;28;20048;-73
2022/11/09 08:36:45;;;;;;;8.32;2.53;;;;;;;13.13;71.54;100665.81;5038813;28;20045;-73
2022/11/09 08:39:10;;;;;;;7.05;1.90;;;;;;;13.17;71.49;100663.31;5043289;28;20037;-75
2022/11/09 08:41:54;;;;;;;10.90;2.22;;;;;;;13.12;71.23;100666.91;5038206;28;20028;-72
2022/11/09 08:44:19;;;;;;;12.57;2.20;;;;;;;13.13;71.18;100671.38;5038133;28;20025;-72
2022/11/09 08:46:45;;;;;;;6.85;2.05;;;;;;;13.14;71.47;100663.88;5039202;28;20028;-71
2022/11/09 08:49:10;;;;;;;8.75;2.35;;;;;;;13.17;71.46;100669.72;5049840;28;20128;-68
2022/11/09 08:51:38;;;;;;;13.43;2.45;;;;;;;13.23;71.38;100665.03;5030239;28;20032;-69
2022/11/09 08:54:03;;;;;;;8.13;2.30;;;;;;;13.26;71.19;100668.09;5033067;28;20025;-69
2022/11/09 08:56:29;;;;;;;8.05;2.35;;;;;;;13.32;71.03;100668.94;5049128;28;20025;-70
2022/11/09 08:58:54;;;;;;;13.15;2.40;;;;;;;13.35;70.91;100676.75;5049064;28;20476;-69
2022/11/09 09:01:20;;;;;;;10.25;2.47;;;;;;;13.35;70.48;100673.97;5039961;28;20487;-67
2022/11/09 09:03:48;;;;;;;11.00;2.58;;;;;;;13.35;70.48;100675.91;5037288;28;20039;-67
2022/11/09 09:06:16;;;;;;;11.00;2.70;;;;;;;13.38;70.09;100670.63;5053494;28;20025;-67
2022/11/09 09:08:41;;;;;;;9.15;2.30;;;;;;;13.40;69.99;100682.34;5053831;28;20040;-66
2022/11/09 09:11:07;;;;;;;10.95;2.30;;;;;;;13.43;70.10;100678.16;5035421;28;20033;-66
2022/11/09 09:13:32;;;;;;;9.68;2.40;;;;;;;13.49;70.42;100666.75;5032218;28;20044;-66
2022/11/09 09:16:07;;;;;;;8.18;2.03;;;;;;;13.59;70.16;100676.22;5041431;28;20111;-69
2022/11/09 09:18:32;;;;;;;8.20;2.50;;;;;;;13.70;69.89;100675.13;5058792;28;20025;-68
2022/11/09 09:20:57;;;;;;;10.30;2.30;;;;;;;13.80;68.98;100671.50;5049678;28;20119;-69
2022/11/09 09:23:22;;;;;;;7.28;1.83;;;;;;;13.85;68.62;100669.53;5041156;28;20037;-74
2022/11/09 09:25:48;;;;;;;7.43;1.95;;;;;;;13.84;68.57;100667.03;5048516;28;20036;-74
2022/11/09 09:28:13;;;;;;;9.18;2.20;;;;;;;13.88;68.25;100679.31;5034275;28;20037;-74
2022/11/09 09:30:38;;;;;;;9.73;2.38;;;;;;;13.88;68.03;100680.16;5033302;28;20041;-75
2022/11/09 09:33:04;;;;;;;11.27;2.53;;;;;;;13.90;68.03;100679.88;5042112;28;20024;-70
2022/11/09 09:35:29;;;;;;;12.10;2.75;;;;;;;13.93;67.50;100687.69;5034418;28;20058;-73
2022/11/09 09:37:56;;;;;;;10.57;2.28;;;;;;;13.91;67.49;100682.38;5032436;28;20146;-71
2022/11/09 09:40:28;;;;;;;11.32;2.22;;;;;;;13.92;67.60;100688.81;5040627;28;20037;-70
2022/11/09 09:42:54;;;;;;;8.98;2.35;;;;;;;13.95;67.59;100691.88;5033936;28;20029;-73
2022/11/09 09:45:32;;;;;;;6.45;2.00;;;;;;;14.02;67.58;100690.75;5032385;28;20032;-72
2022/11/09 09:48:12;;;;;;;10.48;2.53;;;;;;;14.03;66.16;100686.81;5034308;28;20032;-76
2022/11/09 09:50:59;;;;;;;8.15;1.90;;;;;;;14.08;67.47;100696.03;5031907;28;20037;-75
2022/11/09 09:53:46;;;;;;;11.77;2.17;;;;;;;14.22;67.18;100705.50;5035898;28;20033;-77
2022/11/09 09:56:18;;;;;;;16.60;2.58;;;;;;;14.33;66.44;100708.28;5038393;28;20037;-75
2022/11/09 09:59:13;;;;;;;10.98;2.40;;;;;;;14.51;66.46;100710.53;5033364;28;20030;-75
2022/11/09 10:01:43;;;;;;;12.00;2.17;;;;;;;14.56;64.60;100715.25;5041494;28;20046;-75
2022/11/09 10:04:18;;;;;;;10.90;2.20;;;;;;;14.67;65.04;100711.31;5080687;28;20389;-75
2022/11/09 10:06:57;;;;;;;9.55;2.38;;;;;;;14.75;64.44;100719.13;5038809;28;20037;-74
2022/11/09 10:09:40;;;;;;;12.02;2.40;;;;;;;14.81;64.66;100723.56;5045607;28;20029;-74
2022/11/09 10:12:25;;;;;;;;;;;;;;;14.90;65.98;100721.03;5050830;28;20166;-75
2022/11/09 10:15:07;;;;;;;8.70;2.08;;;;;;;14.93;64.50;100721.31;5038393;28;20387;-76
2022/11/09 10:17:38;;;;;;;11.07;2.17;;;;;;;14.90;63.75;100721.88;5037739;28;20045;-75
2022/11/09 10:20:25;;;;;;;7.35;2.05;;;;;;;14.87;64.48;100727.19;5034467;28;20044;-76
2022/11/09 10:23:16;;;;;;;9.13;2.08;;;;;;;14.91;63.39;100712.34;5040438;28;20464;-76
2022/11/09 10:25:45;;;;;;;9.95;1.98;;;;;;;14.92;62.40;100718.78;5052664;28;20376;-75
2022/11/09 10:28:14;;;;;;;7.75;1.73;;;;;;;14.93;62.06;100721.31;5038709;28;20078;-75
2022/11/09 10:30:40;;;;;;;12.95;2.40;;;;;;;14.86;61.85;100717.97;5036969;28;20079;-75
2022/11/09 10:33:08;;;;;;;7.57;1.77;;;;;;;14.85;62.49;100724.66;5030356;28;20488;-75
2022/11/09 10:35:37;;;;;;;5.53;1.77;;;;;;;14.83;61.96;100726.09;5032125;28;20452;-75
2022/11/09 10:38:02;;;;;;;8.30;1.92;;;;;;;14.82;62.48;100722.47;5036296;28;20484;-75
2022/11/09 10:40:37;;;;;;;6.60;2.08;;;;;;;14.78;62.33;100726.94;5032588;28;20035;-75
2022/11/09 10:43:09;;;;;;;10.50;2.65;;;;;;;14.76;62.74;100734.75;5051659;28;20120;-75
2022/11/09 10:45:37;;;;;;;12.30;2.22;;;;;;;14.67;62.17;100736.47;5040676;28;20025;-75
2022/11/09 10:48:05;;;;;;;10.38;2.00;;;;;;;14.65;62.24;100738.69;5034634;28;20036;-74
2022/11/09 10:50:37;;;;;;;8.38;2.10;;;;;;;14.63;62.69;100743.75;5046303;28;20041;-75
2022/11/09 10:53:16;;;;;;;9.48;1.75;;;;;;;14.62;62.79;100753.22;5046906;28;20562;-75
2022/11/09 10:56:18;;;;;;;13.15;2.30;;;;;;;14.57;63.36;100751.28;5041893;28;20514;-76
2022/11/09 10:58:49;;;;;;;7.82;1.88;;;;;;;14.46;63.19;100744.88;5035793;28;20061;-76
2022/11/09 11:01:16;;;;;;;9.93;2.20;;;;;;;14.44;63.19;100752.66;5037457;28;20095;-76
2022/11/09 11:03:43;;;;;;;11.27;1.92;;;;;;;14.40;62.70;100757.16;5038893;28;20043;-75
2022/11/09 11:06:18;;;;;;;10.25;2.10;;;;;;;14.36;63.25;100758.81;5037838;28;20037;-75
2022/11/09 11:08:47;;;;;;;8.23;1.90;;;;;;;14.36;63.33;100758.00;5043011;28;20468;-76
2022/11/09 11:11:29;;;;;;;13.38;2.15;;;;;;;14.36;63.54;100763.56;5035689;28;20739;-76
2022/11/09 11:14:22;;;;;;;8.48;2.00;;;;;;;14.38;63.52;100764.13;5044569;28;20031;-76
2022/11/09 11:16:49;;;;;;;;;;;;;;;14.43;64.03;100758.56;5046765;28;20056;-76
2022/11/09 11:19:27;;;;;;;9.23;1.70;;;;;;;14.36;63.21;100767.19;5041247;28;19913;-75
2022/11/09 11:22:21;;;;;;;10.63;2.00;;;;;;;14.32;63.13;100760.50;5049368;28;20018;-74
2022/11/09 11:24:55;;;;;;;9.57;2.03;;;;;;;14.25;63.35;100766.38;5041310;28;20033;-70
2022/11/09 11:27:24;;;;;;;8.30;1.70;;;;;;;14.34;63.28;100766.63;5040557;28;20099;-72
2022/11/09 11:29:59;;;;;;;9.32;2.00;;;;;;;14.30;62.39;100771.09;5033855;28;20088;-72